Time;durP1;ratioP1;P1;durP2;ratioP2;P2;SDS_P1;SDS_P2;PMS_P1;PMS_P2;Temp;Humidity;BMP_temperature;BMP_pressure;BME280_temperature;BME280_humidity;BME280_pressure;Samples;Min_cycle;Max_cycle;Signal;HPM_P1;HPM_P2
2023/01/21 00:01:06;;;;;;;7.55;4.47;;;15.90;62.20;;;;;;10409385;28;20025;-58
2023/01/21 00:06:07;;;;;;;5.70;4.25;;;15.90;62.00;;;;;;10409068;28;20028;-59
2023/01/21 00:11:12;;;;;;;6.10;4.70;;;15.90;62.00;;;;;;10409072;28;20029;-60
2023/01/21 00:16:13;;;;;;;8.20;5.28;;;15.90;62.00;;;;;;10409029;28;20052;-60
2023/01/21 00:21:14;;;;;;;6.45;5.00;;;15.90;61.90;;;;;;10416578;28;20338;-60
2023/01/21 00:26:15;;;;;;;7.35;4.60;;;15.90;61.90;;;;;;10449604;28;20056;-59
2023/01/21 00:31:15;;;;;;;6.55;5.10;;;15.90;61.90;;;;;;10449335;28;20100;-60
2023/01/21 00:36:21;;;;;;;5.00;3.95;;;15.90;61.80;;;;;;10449469;28;20104;-60
2023/01/21 00:41:25;;;;;;;6.93;5.13;;;15.90;61.80;;;;;;10448727;28;20040;-59
2023/01/21 00:46:26;;;;;;;4.97;3.80;;;15.80;61.70;;;;;;10435119;28;20017;-59
2023/01/21 00:51:27;;;;;;;6.22;4.57;;;15.90;61.70;;;;;;10441165;28;20017;-59
2023/01/21 00:56:28;;;;;;;6.30;4.25;;;15.90;61.60;;;;;;10431859;28;20029;-60
2023/01/21 01:01:33;;;;;;;5.32;4.35;;;15.90;61.60;;;;;;10448391;28;20017;-59
2023/01/21 01:06:33;;;;;;;7.90;5.30;;;15.90;61.30;;;;;;10449279;28;20078;-60
2023/01/21 01:11:34;;;;;;;5.43;3.90;;;16.00;61.10;;;;;;10448492;28;20162;-59
2023/01/21 01:16:35;;;;;;;6.57;4.45;;;16.00;61.10;;;;;;10438459;28;20033;-60
2023/01/21 01:21:35;;;;;;;6.07;5.28;;;15.90;61.10;;;;;;10429469;28;20029;-59
2023/01/21 01:26:36;;;;;;;5.88;4.20;;;16.00;61.00;;;;;;10447055;28;20017;-59
2023/01/21 01:31:37;;;;;;;7.47;4.78;;;16.00;61.60;;;;;;10446890;28;20170;-60
2023/01/21 01:36:37;;;;;;;5.20;3.65;;;16.00;61.00;;;;;;10446500;28;20025;-58
2023/01/21 01:41:38;;;;;;;6.03;4.13;;;16.00;60.90;;;;;;10447685;28;20019;-60
2023/01/21 01:46:39;;;;;;;5.20;3.53;;;16.00;60.90;;;;;;10415930;28;20164;-60
2023/01/21 01:51:51;;;;;;;6.68;3.80;;;15.90;60.70;;;;;;10411385;28;20466;-59
2023/01/21 01:56:57;;;;;;;5.68;3.75;;;16.00;60.70;;;;;;10405729;28;20473;-60
2023/01/21 02:02:08;;;;;;;8.18;4.45;;;16.00;60.70;;;;;;10413692;28;20850;-59
2023/01/21 02:07:09;;;;;;;5.75;4.30;;;16.00;60.50;;;;;;10421359;28;20465;-59
2023/01/21 02:12:10;;;;;;;5.43;4.20;;;16.10;60.50;;;;;;10419139;28;20045;-58
2023/01/21 02:17:38;;;;;;;5.70;4.25;;;16.00;60.40;;;;;;10431718;28;20035;-60
2023/01/21 02:23:12;;;;;;;5.57;4.50;;;16.10;60.40;;;;;;10432564;28;20044;-59
2023/01/21 02:29:28;;;;;;;5.50;4.15;;;16.10;60.40;;;;;;10445066;28;20460;-60
2023/01/21 02:35:03;;;;;;;4.50;3.35;;;16.00;60.40;;;;;;10318101;28;20093;-58
2023/01/21 02:40:24;;;;;;;7.30;3.97;;;16.00;60.50;;;;;;10400236;28;20033;-60
2023/01/21 02:45:43;;;;;;;5.10;3.63;;;16.00;60.60;;;;;;10415466;28;20017;-60
2023/01/21 02:50:49;;;;;;;7.32;3.53;;;16.00;60.60;;;;;;10411428;28;20064;-58
2023/01/21 02:55:51;;;;;;;5.40;4.05;;;16.00;60.60;;;;;;10403585;28;20025;-59
2023/01/21 03:01:34;;;;;;;6.55;4.50;;;16.00;60.50;;;;;;10443005;28;20025;-59
2023/01/21 03:07:06;;;;;;;4.70;3.75;;;16.00;60.40;;;;;;10412728;28;20112;-59
2023/01/21 03:12:16;;;;;;;5.13;3.42;;;16.10;60.40;;;;;;10411161;28;20053;-60
2023/01/21 03:17:43;;;;;;;5.10;3.50;;;16.10;60.40;;;;;;10412507;28;20040;-59
2023/01/21 03:22:46;;;;;;;6.35;3.65;;;16.00;60.30;;;;;;10431784;28;20021;-60
2023/01/21 03:27:48;;;;;;;6.05;3.95;;;16.00;60.40;;;;;;10452145;28;20021;-60
2023/01/21 03:32:51;;;;;;;5.15;3.60;;;16.00;60.40;;;;;;10441428;28;20108;-60
2023/01/21 03:38:02;;;;;;;5.25;3.80;;;16.00;60.40;;;;;;10426705;28;20112;-60
2023/01/21 03:43:03;;;;;;;5.10;3.20;;;16.00;60.40;;;;;;10422904;28;20072;-60
2023/01/21 03:48:21;;;;;;;5.13;3.30;;;16.00;60.40;;;;;;10412287;28;20100;-60
2023/01/21 03:53:22;;;;;;;4.07;3.22;;;16.00;60.30;;;;;;10411629;28;20044;-59
2023/01/21 03:58:23;;;;;;;5.35;3.72;;;16.00;60.10;;;;;;10409257;28;20698;-60
2023/01/21 04:03:23;;;;;;;4.68;3.30;;;16.00;60.10;;;;;;10409299;28;20022;-59
2023/01/21 04:08:24;;;;;;;5.57;3.70;;;16.10;60.00;;;;;;10431076;28;20031;-58
2023/01/21 04:13:25;;;;;;;4.97;3.58;;;16.20;59.80;;;;;;10412442;28;20044;-60
2023/01/21 04:18:25;;;;;;;4.45;3.30;;;16.10;59.70;;;;;;10408665;28;20096;-60
2023/01/21 04:23:26;;;;;;;5.38;3.28;;;16.10;59.70;;;;;;10435963;28;20021;-60
2023/01/21 04:28:27;;;;;;;5.03;2.85;;;16.10;59.70;;;;;;10435294;28;20037;-59
2023/01/21 04:33:29;;;;;;;4.55;3.35;;;16.10;59.80;;;;;;10408081;28;20013;-59
2023/01/21 04:38:30;;;;;;;4.63;3.40;;;16.00;59.80;;;;;;10409468;28;20084;-59
2023/01/21 04:43:30;;;;;;;4.53;3.05;;;16.00;59.80;;;;;;10420587;28;20156;-60
2023/01/21 04:48:32;;;;;;;4.30;3.42;;;16.00;59.80;;;;;;10407396;28;20532;-60
2023/01/21 04:53:32;;;;;;;3.97;3.40;;;16.00;59.80;;;;;;10427744;28;20068;-61
2023/01/21 04:58:33;;;;;;;4.68;3.15;;;16.00;59.70;;;;;;10406859;28;20029;-60
2023/01/21 05:03:34;;;;;;;4.65;3.03;;;16.00;59.70;;;;;;10424783;28;20021;-60
2023/01/21 05:08:35;;;;;;;4.93;3.00;;;16.00;59.70;;;;;;10430244;28;20068;-59
2023/01/21 05:13:35;;;;;;;5.07;3.50;;;16.00;59.60;;;;;;10430730;28;20508;-60
2023/01/21 05:18:37;;;;;;;3.78;2.50;;;16.00;59.60;;;;;;10427495;28;20171;-60
2023/01/21 05:23:37;;;;;;;4.60;3.40;;;16.10;59.50;;;;;;10429894;28;20017;-60
2023/01/21 05:28:38;;;;;;;4.47;3.20;;;16.10;59.40;;;;;;10428407;28;20116;-59
2023/01/21 05:33:39;;;;;;;4.88;3.50;;;16.10;59.50;;;;;;10430407;28;20103;-58
2023/01/21 05:38:39;;;;;;;5.60;4.10;;;16.10;59.60;;;;;;10424033;28;20112;-59
2023/01/21 05:43:40;;;;;;;6.10;5.50;;;16.10;59.60;;;;;;10427874;28;20213;-59
2023/01/21 05:48:41;;;;;;;5.72;5.13;;;16.10;59.60;;;;;;10430305;28;20636;-59
2023/01/21 05:53:41;;;;;;;7.72;6.65;;;16.10;59.70;;;;;;10425028;28;20501;-60
2023/01/21 05:58:42;;;;;;;8.23;6.75;;;16.10;59.70;;;;;;10442907;28;20049;-60
2023/01/21 06:03:43;;;;;;;7.47;6.75;;;16.00;59.70;;;;;;10426100;28;20096;-58
2023/01/21 06:08:43;;;;;;;11.43;8.95;;;16.00;60.20;;;;;;10428957;28;20092;-61
2023/01/21 06:13:44;;;;;;;14.02;11.82;;;16.10;60.60;;;;;;10430378;28;20627;-58
2023/01/21 06:18:45;;;;;;;15.38;13.85;;;16.20;60.60;;;;;;10443379;28;20092;-59
2023/01/21 06:23:46;;;;;;;14.52;13.05;;;16.20;61.40;;;;;;10435677;28;20748;-60
2023/01/21 06:28:46;;;;;;;15.90;14.18;;;16.30;62.60;;;;;;10432222;28;20050;-59
2023/01/21 06:33:47;;;;;;;16.05;14.43;;;16.30;62.80;;;;;;10428386;28;20112;-58
2023/01/21 06:38:48;;;;;;;20.95;14.82;;;16.30;62.20;;;;;;10435498;28;20490;-60
2023/01/21 06:43:48;;;;;;;16.65;14.95;;;16.20;62.20;;;;;;10445159;28;20100;-59
2023/01/21 06:48:50;;;;;;;15.63;13.50;;;16.20;62.70;;;;;;10454583;28;20057;-58
2023/01/21 06:53:51;;;;;;;18.65;13.65;;;16.30;63.10;;;;;;10444999;28;20029;-57
2023/01/21 06:58:52;;;;;;;20.92;14.85;;;16.20;63.00;;;;;;10442188;28;20017;-58
2023/01/21 07:03:53;;;;;;;14.23;12.88;;;16.10;63.60;;;;;;10430147;28;20112;-60
2023/01/21 07:08:53;;;;;;;17.70;15.02;;;16.10;63.20;;;;;;10428636;28;20093;-57
2023/01/21 07:13:54;;;;;;;24.02;14.40;;;16.10;63.60;;;;;;10449675;28;20123;-61
2023/01/21 07:18:55;;;;;;;15.75;14.07;;;16.00;63.30;;;;;;10467000;28;20013;-62
2023/01/21 07:23:55;;;;;;;17.70;13.82;;;16.10;62.90;;;;;;10448696;28;20116;-61
2023/01/21 07:28:56;;;;;;;19.10;13.63;;;16.00;63.00;;;;;;10444858;28;20096;-60
2023/01/21 07:33:57;;;;;;;21.83;11.90;;;16.10;62.90;;;;;;10432243;28;20043;-61
2023/01/21 07:38:58;;;;;;;21.75;12.95;;;16.10;62.60;;;;;;10445302;28;20013;-61
2023/01/21 07:43:59;;;;;;;42.92;12.88;;;16.00;62.60;;;;;;10442137;28;20487;-59
2023/01/21 07:49:00;;;;;;;24.70;12.27;;;15.90;63.00;;;;;;10435302;28;20028;-57
2023/01/21 07:54:00;;;;;;;18.88;10.40;;;15.90;64.00;;;;;;10430073;28;20140;-58
2023/01/21 07:59:01;;;;;;;26.65;12.90;;;15.90;63.50;;;;;;10445819;28;20023;-59
2023/01/21 08:04:02;;;;;;;20.13;11.48;;;15.90;62.60;;;;;;10436074;28;20104;-59
2023/01/21 08:09:03;;;;;;;20.52;10.90;;;15.90;62.10;;;;;;10452284;28;20021;-60
2023/01/21 08:14:04;;;;;;;17.67;9.77;;;15.90;61.80;;;;;;10431463;28;20045;-60
2023/01/21 08:19:05;;;;;;;17.92;11.10;;;15.90;61.70;;;;;;10434699;28;20172;-60
2023/01/21 08:24:06;;;;;;;17.48;9.93;;;16.00;61.60;;;;;;10445535;28;20263;-60
2023/01/21 08:29:07;;;;;;;16.40;8.55;;;15.90;61.60;;;;;;10443628;28;20109;-59
2023/01/21 08:34:07;;;;;;;16.60;10.23;;;15.90;61.60;;;;;;10428344;28;20029;-59
2023/01/21 08:39:09;;;;;;;17.80;9.50;;;15.90;61.40;;;;;;10430203;28;20087;-60
2023/01/21 08:44:10;;;;;;;13.55;8.13;;;16.00;61.30;;;;;;10429733;28;20354;-60
2023/01/21 08:49:11;;;;;;;13.70;7.90;;;16.00;61.10;;;;;;10425466;28;20028;-60
2023/01/21 08:54:11;;;;;;;11.70;8.13;;;15.90;61.20;;;;;;10433032;28;20499;-60
2023/01/21 08:59:12;;;;;;;11.75;8.38;;;15.90;61.20;;;;;;10447205;28;20049;-59
2023/01/21 09:04:13;;;;;;;16.70;9.63;;;15.90;61.20;;;;;;10446533;28;20119;-59
2023/01/21 09:09:14;;;;;;;15.25;8.57;;;15.90;61.20;;;;;;10445987;28;20056;-62
2023/01/21 09:14:14;;;;;;;11.82;7.00;;;15.80;61.00;;;;;;10429657;28;20053;-61
2023/01/21 09:19:15;;;;;;;12.27;7.88;;;15.90;60.80;;;;;;10432450;28;20064;-60
2023/01/21 09:24:16;;;;;;;13.15;8.07;;;15.80;60.60;;;;;;10427582;28;20028;-62
2023/01/21 09:29:17;;;;;;;14.65;7.97;;;15.90;60.50;;;;;;10427405;28;20021;-60
2023/01/21 09:34:18;;;;;;;9.95;6.57;;;15.90;60.40;;;;;;10430123;28;20031;-59
2023/01/21 09:39:18;;;;;;;13.95;7.60;;;15.90;60.50;;;;;;10432849;28;20104;-60
2023/01/21 09:44:31;;;;;;;13.85;8.05;;;15.90;60.40;;;;;;10425663;28;20053;-60
2023/01/21 09:49:42;;;;;;;16.67;8.80;;;15.80;60.20;;;;;;10414798;28;20040;-59
2023/01/21 09:54:43;;;;;;;15.88;7.82;;;15.80;60.40;;;;;;10428875;28;20029;-60
2023/01/21 09:59:46;;;;;;;19.38;9.10;;;15.90;60.90;;;;;;10430089;28;20021;-58
2023/01/21 10:05:05;;;;;;;17.08;8.07;;;15.80;60.70;;;;;;10428818;28;20597;-60
2023/01/21 10:10:27;;;;;;;22.38;8.23;;;15.90;60.30;;;;;;10425700;28;20083;-60
2023/01/21 10:15:43;;;;;;;16.88;8.07;;;15.90;60.50;;;;;;10430019;28;20049;-60
2023/01/21 10:20:53;;;;;;;23.30;8.80;;;16.00;60.40;;;;;;10450366;28;20017;-59
2023/01/21 10:25:55;;;;;;;13.43;7.75;;;16.00;60.30;;;;;;10428122;28;20025;-60
2023/01/21 10:31:20;;;;;;;13.82;7.22;;;16.00;60.20;;;;;;10430843;28;20029;-61
2023/01/21 10:37:11;;;;;;;17.02;9.77;;;15.90;60.10;;;;;;10433198;28;20484;-60
2023/01/21 10:42:23;;;;;;;26.15;8.77;;;15.90;60.50;;;;;;10415869;28;20056;-61
2023/01/21 10:47:46;;;;;;;27.85;9.63;;;15.90;61.00;;;;;;10445456;28;20032;-62
2023/01/21 10:53:30;;;;;;;26.55;9.18;;;15.90;61.40;;;;;;10450124;28;20025;-59
2023/01/21 10:58:54;;;;;;;28.58;8.75;;;15.80;61.40;;;;;;10434337;28;20542;-65
2023/01/21 11:04:05;;;;;;;34.55;8.25;;;15.90;61.70;;;;;;10438369;28;20026;-61
2023/01/21 11:09:12;;;;;;;30.55;7.88;;;16.20;61.10;;;;;;10447919;28;20017;-59
2023/01/21 11:14:12;;;;;;;30.98;8.43;;;16.00;61.40;;;;;;10411743;28;20048;-61
2023/01/21 11:19:20;;;;;;;26.50;9.00;;;15.90;61.80;;;;;;10433475;28;20096;-61
2023/01/21 11:24:24;;;;;;;27.92;8.35;;;15.90;62.50;;;;;;10445867;28;20028;-60
2023/01/21 11:29:25;;;;;;;25.73;7.20;;;16.00;62.50;;;;;;10452842;28;20017;-61
2023/01/21 11:34:27;;;;;;;26.05;7.20;;;16.20;62.90;;;;;;10451422;28;20112;-59
2023/01/21 11:39:35;;;;;;;25.70;6.93;;;16.20;63.20;;;;;;10449538;28;20017;-60
2023/01/21 11:44:53;;;;;;;25.67;7.43;;;16.30;63.60;;;;;;10446701;28;20048;-61
2023/01/21 11:49:54;;;;;;;15.77;7.47;;;16.30;63.90;;;;;;10437999;28;20032;-61
2023/01/21 11:54:54;;;;;;;19.45;7.30;;;16.10;63.70;;;;;;10447455;28;20120;-62
2023/01/21 12:00:17;;;;;;;25.88;7.55;;;15.90;64.20;;;;;;10449278;28;20023;-60
2023/01/21 12:05:29;;;;;;;26.75;8.75;;;15.70;64.70;;;;;;10447437;28;20112;-59
2023/01/21 12:10:42;;;;;;;23.70;8.55;;;15.80;65.20;;;;;;10443704;28;20108;-59
2023/01/21 12:16:06;;;;;;;24.35;7.40;;;15.70;65.10;;;;;;10438971;28;20140;-59
2023/01/21 12:21:42;;;;;;;17.10;6.35;;;15.70;65.00;;;;;;10435321;28;20028;-60
2023/01/21 12:27:04;;;;;;;35.33;8.23;;;15.60;64.80;;;;;;10437997;28;20025;-60
2023/01/21 12:32:33;;;;;;;19.92;6.65;;;15.60;64.70;;;;;;10434877;28;20061;-59
2023/01/21 12:37:57;;;;;;;17.77;6.93;;;15.50;64.30;;;;;;10437459;28;20052;-59
2023/01/21 12:43:07;;;;;;;19.45;7.15;;;15.50;64.40;;;;;;10448608;28;20017;-60
2023/01/21 12:48:35;;;;;;;16.88;8.20;;;15.50;64.50;;;;;;10446901;28;20059;-60
2023/01/21 12:53:55;;;;;;;13.55;7.25;;;15.40;64.70;;;;;;10446561;28;20375;-60
2023/01/21 12:59:16;;;;;;;13.57;5.45;;;15.30;64.60;;;;;;10453151;28;20044;-59
2023/01/21 13:05:08;;;;;;;15.40;6.80;;;15.30;64.70;;;;;;10439656;28;20416;-60
2023/01/21 13:10:41;;;;;;;11.90;6.47;;;15.20;64.80;;;;;;10435213;28;20021;-59
2023/01/21 13:15:45;;;;;;;12.50;5.22;;;15.20;64.80;;;;;;10441347;28;20045;-59
2023/01/21 13:20:56;;;;;;;11.55;5.47;;;15.10;64.90;;;;;;10433980;28;20452;-60
2023/01/21 13:26:24;;;;;;;11.18;5.68;;;15.10;65.00;;;;;;10434942;28;20473;-59
2023/01/21 13:31:49;;;;;;;11.65;5.13;;;15.00;65.00;;;;;;10444047;28;20013;-59
2023/01/21 13:37:17;;;;;;;11.63;5.72;;;15.00;64.70;;;;;;10444674;28;20049;-60
2023/01/21 13:42:32;;;;;;;9.65;5.60;;;15.10;64.70;;;;;;10441675;28;20013;-59
2023/01/21 13:47:52;;;;;;;12.00;5.60;;;15.10;64.80;;;;;;10440936;28;20127;-57
2023/01/21 13:53:25;;;;;;;10.38;5.25;;;15.30;64.90;;;;;;10442045;28;20021;-58
2023/01/21 13:58:38;;;;;;;13.13;5.95;;;15.20;64.50;;;;;;10421621;28;20024;-57
2023/01/21 14:04:09;;;;;;;12.77;6.18;;;15.30;64.10;;;;;;10436648;28;20308;-58
2023/01/21 14:09:25;;;;;;;15.40;7.32;;;15.40;63.60;;;;;;10421607;28;20087;-57
2023/01/21 14:14:50;;;;;;;9.02;5.00;;;15.50;63.40;;;;;;10431356;28;20045;-59
2023/01/21 14:20:39;;;;;;;14.60;5.03;;;15.40;63.40;;;;;;10430869;28;20041;-58
2023/01/21 14:26:32;;;;;;;12.00;4.57;;;15.50;63.30;;;;;;10438217;28;20025;-57
2023/01/21 14:31:59;;;;;;;9.98;4.82;;;15.50;63.30;;;;;;10413734;28;20013;-57
2023/01/21 14:37:12;;;;;;;9.38;4.18;;;15.50;63.20;;;;;;10432906;28;20045;-58
2023/01/21 14:42:23;;;;;;;6.90;4.25;;;15.50;63.00;;;;;;10436703;28;20029;-62
2023/01/21 14:53:49;;;;;;;7.53;4.38;;;15.50;63.00;;;;;;10439233;28;20028;-58
2023/01/21 14:59:01;;;;;;;8.93;3.80;;;15.50;62.90;;;;;;10439982;28;20033;-58
2023/01/21 15:04:16;;;;;;;7.78;3.88;;;15.50;63.00;;;;;;10446190;28;20021;-57
2023/01/21 15:09:28;;;;;;;7.45;4.18;;;15.60;62.70;;;;;;10432269;28;20124;-57
2023/01/21 15:14:40;;;;;;;7.35;4.03;;;15.60;62.60;;;;;;10432141;28;20045;-58
2023/01/21 15:19:40;;;;;;;7.70;4.22;;;15.60;62.70;;;;;;10450693;28;20465;-58
2023/01/21 15:25:13;;;;;;;6.93;3.88;;;15.50;62.60;;;;;;10442368;28;20025;-58
2023/01/21 15:30:36;;;;;;;6.68;3.88;;;15.60;62.40;;;;;;10445020;28;20356;-56
2023/01/21 15:35:39;;;;;;;5.85;3.65;;;15.60;62.40;;;;;;10427499;28;20032;-59
2023/01/21 15:41:07;;;;;;;5.32;2.97;;;15.60;62.20;;;;;;10431596;28;20071;-59
2023/01/21 15:46:31;;;;;;;5.43;3.40;;;15.50;62.20;;;;;;10446072;28;20017;-59
2023/01/21 15:52:15;;;;;;;7.53;3.92;;;15.60;62.20;;;;;;10443963;28;20476;-61
2023/01/21 15:58:02;;;;;;;10.48;3.88;;;15.60;61.80;;;;;;10459297;28;20032;-58
2023/01/21 16:03:14;;;;;;;6.15;4.05;;;15.60;61.80;;;;;;10429840;28;20021;-58
2023/01/21 16:08:24;;;;;;;8.57;3.63;;;15.60;61.80;;;;;;10415446;28;20013;-58
2023/01/21 16:13:40;;;;;;;8.02;3.47;;;15.60;62.00;;;;;;10407094;28;20047;-57
2023/01/21 16:18:50;;;;;;;6.93;3.22;;;15.60;61.80;;;;;;10408298;28;20418;-58
2023/01/21 16:23:55;;;;;;;6.32;2.80;;;15.60;61.70;;;;;;10433519;28;20531;-59
2023/01/21 16:28:56;;;;;;;6.00;3.40;;;15.60;61.70;;;;;;10408016;28;20040;-59
2023/01/21 16:33:56;;;;;;;6.10;2.70;;;15.60;61.70;;;;;;10428864;28;20013;-59
2023/01/21 16:39:07;;;;;;;8.27;4.15;;;15.60;62.10;;;;;;10433152;28;20024;-60
2023/01/21 16:44:15;;;;;;;14.85;4.63;;;15.60;62.30;;;;;;10436914;28;20009;-60
2023/01/21 16:49:16;;;;;;;12.15;3.85;;;15.70;62.00;;;;;;10430730;28;20041;-61
2023/01/21 16:54:22;;;;;;;13.48;4.90;;;15.80;61.60;;;;;;10431560;28;20034;-61
2023/01/21 16:59:39;;;;;;;12.90;4.45;;;15.80;61.30;;;;;;10433544;28;20024;-59
2023/01/21 17:04:40;;;;;;;9.65;4.85;;;15.90;61.00;;;;;;10445334;28;20032;-60
2023/01/21 17:09:41;;;;;;;11.93;5.18;;;15.80;61.10;;;;;;10449362;28;20101;-64
2023/01/21 17:14:42;;;;;;;16.42;6.10;;;15.80;61.70;;;;;;10447866;28;20124;-58
2023/01/21 17:19:42;;;;;;;16.58;5.68;;;16.30;64.80;;;;;;10447872;28;20017;-57
2023/01/21 17:24:54;;;;;;;12.27;5.82;;;16.50;64.70;;;;;;10448771;28;20027;-60
2023/01/21 17:30:28;;;;;;;11.38;4.57;;;16.40;64.50;;;;;;10448776;28;20473;-61
2023/01/21 17:35:32;;;;;;;13.52;5.68;;;16.30;64.10;;;;;;10431044;28;20518;-62
2023/01/21 17:41:00;;;;;;;12.55;5.20;;;16.20;64.00;;;;;;10447260;28;20021;-62
2023/01/21 17:46:01;;;;;;;15.02;6.10;;;16.10;64.10;;;;;;10432160;28;20017;-60
2023/01/21 17:51:13;;;;;;;13.40;4.82;;;16.00;64.10;;;;;;10413860;28;20048;-59
2023/01/21 17:56:14;;;;;;;17.42;6.03;;;15.90;64.30;;;;;;10406412;28;20064;-60
2023/01/21 18:01:15;;;;;;;23.05;5.63;;;15.80;64.00;;;;;;10405715;28;20100;-58
2023/01/21 18:06:21;;;;;;;17.05;5.93;;;16.00;63.80;;;;;;10414652;28;20024;-59
2023/01/21 18:11:22;;;;;;;19.67;4.97;;;15.80;63.70;;;;;;10431301;28;20064;-59
2023/01/21 18:16:23;;;;;;;15.68;4.88;;;15.70;63.60;;;;;;10403974;28;20657;-60
2023/01/21 18:21:23;;;;;;;14.80;6.40;;;15.70;63.70;;;;;;10414695;28;20020;-60
2023/01/21 18:26:28;;;;;;;15.40;5.97;;;15.60;63.70;;;;;;10445609;28;20109;-60
2023/01/21 18:31:29;;;;;;;11.38;4.53;;;15.60;63.30;;;;;;10442144;28;20032;-57
2023/01/21 18:36:30;;;;;;;9.55;4.65;;;15.70;63.10;;;;;;10425441;28;20035;-60
2023/01/21 18:41:31;;;;;;;11.18;5.05;;;15.60;62.90;;;;;;10427691;28;20017;-60
2023/01/21 18:46:31;;;;;;;10.95;4.55;;;15.70;62.70;;;;;;10427623;28;20132;-59
2023/01/21 18:51:32;;;;;;;13.20;4.55;;;15.70;62.60;;;;;;10421674;28;20030;-61
2023/01/21 18:56:34;;;;;;;7.43;4.38;;;15.60;62.30;;;;;;10417065;28;20061;-60
2023/01/21 19:01:35;;;;;;;10.77;4.13;;;15.60;62.20;;;;;;10419243;28;20029;-60
2023/01/21 19:06:36;;;;;;;8.82;4.70;;;15.70;62.10;;;;;;10427318;28;20121;-60
2023/01/21 19:11:37;;;;;;;9.52;4.13;;;15.70;61.70;;;;;;10435570;28;20608;-60
2023/01/21 19:16:39;;;;;;;10.38;4.20;;;15.70;61.60;;;;;;10429647;28;20072;-60
2023/01/21 19:21:40;;;;;;;9.70;4.15;;;15.80;61.40;;;;;;10429959;28;20018;-60
2023/01/21 19:26:41;;;;;;;8.00;3.85;;;15.80;61.10;;;;;;10427950;28;20043;-60
2023/01/21 19:31:42;;;;;;;7.97;4.55;;;15.80;61.00;;;;;;10423961;28;20032;-61
2023/01/21 19:36:42;;;;;;;9.65;4.53;;;15.90;60.70;;;;;;10432336;28;20111;-60
2023/01/21 19:41:43;;;;;;;8.48;3.85;;;15.90;60.60;;;;;;10412967;28;20108;-60
2023/01/21 19:46:44;;;;;;;5.72;4.25;;;15.90;60.50;;;;;;10429058;28;20049;-61
2023/01/21 19:51:45;;;;;;;9.00;4.80;;;15.90;60.50;;;;;;10429930;28;20047;-61
2023/01/21 19:56:46;;;;;;;8.80;4.35;;;15.90;60.30;;;;;;10440702;28;20021;-61
2023/01/21 20:01:46;;;;;;;5.88;3.72;;;15.90;60.20;;;;;;10429150;28;20025;-61
2023/01/21 20:06:47;;;;;;;6.55;3.92;;;15.80;60.20;;;;;;10415880;28;20110;-61
2023/01/21 20:11:48;;;;;;;10.27;5.10;;;15.90;60.30;;;;;;10427455;28;20032;-62
2023/01/21 20:16:53;;;;;;;10.65;5.28;;;15.90;60.20;;;;;;10429768;28;20473;-62
2023/01/21 20:21:53;;;;;;;7.43;3.83;;;15.80;60.10;;;;;;10432697;28;20067;-62
2023/01/21 20:26:54;;;;;;;6.25;3.33;;;15.90;60.10;;;;;;10424902;28;20074;-62
2023/01/21 20:31:55;;;;;;;7.75;4.00;;;15.90;59.90;;;;;;10430255;28;20026;-61
2023/01/21 20:36:55;;;;;;;6.22;4.53;;;15.80;60.00;;;;;;10430331;28;20171;-61
2023/01/21 20:41:56;;;;;;;6.88;3.88;;;15.70;60.20;;;;;;10432764;28;20105;-62
2023/01/21 20:46:59;;;;;;;6.22;4.00;;;15.70;60.30;;;;;;10444082;28;20564;-61
2023/01/21 20:52:00;;;;;;;8.05;3.95;;;15.60;60.50;;;;;;10430771;28;20033;-61
2023/01/21 20:57:00;;;;;;;6.88;3.78;;;15.50;60.60;;;;;;10427407;28;20053;-61
2023/01/21 21:02:01;;;;;;;4.78;3.40;;;15.40;60.80;;;;;;10429215;28;20101;-61
2023/01/21 21:07:01;;;;;;;5.15;3.53;;;15.30;61.00;;;;;;10437756;28;20049;-61
2023/01/21 21:12:02;;;;;;;6.63;4.18;;;15.20;61.00;;;;;;10410543;28;20023;-61
2023/01/21 21:17:10;;;;;;;5.97;3.90;;;15.20;61.20;;;;;;10408112;28;20029;-61
2023/01/21 21:22:10;;;;;;;6.05;3.75;;;15.10;61.30;;;;;;10436064;28;20024;-62
2023/01/21 21:27:11;;;;;;;4.63;3.55;;;15.00;61.40;;;;;;10447689;28;20491;-62
2023/01/21 21:32:12;;;;;;;5.35;3.70;;;15.00;61.50;;;;;;10447602;28;20630;-62
2023/01/21 21:37:13;;;;;;;6.47;3.85;;;14.90;61.50;;;;;;10447035;28;20051;-60
2023/01/21 21:52:52;;;;;;;5.60;3.33;;;14.80;61.70;;;;;;10439476;28;20103;-62
2023/01/21 21:57:53;;;;;;;5.82;4.22;;;14.70;61.50;;;;;;10417375;28;20057;-62
2023/01/21 22:02:58;;;;;;;5.90;3.72;;;14.60;61.70;;;;;;10406286;28;20096;-63
2023/01/21 22:07:59;;;;;;;4.28;3.25;;;14.60;61.60;;;;;;10422438;28;20060;-63
2023/01/21 22:13:00;;;;;;;5.95;4.30;;;14.60;61.60;;;;;;10442962;28;20133;-62
2023/01/21 22:18:01;;;;;;;5.65;3.90;;;14.50;61.80;;;;;;10447857;28;20121;-62
2023/01/21 22:23:01;;;;;;;5.47;4.13;;;14.50;61.90;;;;;;10418990;28;20525;-62
2023/01/21 22:28:02;;;;;;;6.78;3.90;;;14.50;62.00;;;;;;10432369;28;20045;-62
2023/01/21 22:33:03;;;;;;;7.95;4.20;;;14.40;62.10;;;;;;10404317;28;20538;-63
2023/01/21 22:38:05;;;;;;;4.95;3.70;;;14.30;62.20;;;;;;10430813;28;20044;-62
2023/01/21 22:43:10;;;;;;;5.15;3.75;;;14.40;62.20;;;;;;10431162;28;20048;-62
2023/01/21 22:48:11;;;;;;;5.35;4.20;;;14.30;62.00;;;;;;10403826;28;20525;-62
2023/01/21 22:53:12;;;;;;;5.80;4.78;;;14.30;62.10;;;;;;10411748;28;20048;-63
2023/01/21 22:58:13;;;;;;;7.10;4.90;;;14.30;62.00;;;;;;10403480;28;20488;-62
2023/01/21 23:03:14;;;;;;;4.45;3.13;;;14.20;62.10;;;;;;10403314;28;20036;-62
2023/01/21 23:08:16;;;;;;;5.95;4.53;;;14.20;62.20;;;;;;10387027;28;20018;-62
2023/01/21 23:13:17;;;;;;;6.03;3.97;;;14.20;62.30;;;;;;10426122;28;20664;-62
2023/01/21 23:18:17;;;;;;;5.00;3.33;;;14.20;62.30;;;;;;10422229;28;20112;-62
2023/01/21 23:23:18;;;;;;;4.50;3.33;;;14.10;62.40;;;;;;10437927;28;20428;-63
2023/01/21 23:28:19;;;;;;;6.45;3.60;;;14.10;62.20;;;;;;10439455;28;20022;-62
2023/01/21 23:33:19;;;;;;;5.65;4.25;;;14.10;62.40;;;;;;10410700;28;20057;-62
2023/01/21 23:38:21;;;;;;;5.57;3.58;;;14.10;62.40;;;;;;10411981;28;20724;-61
2023/01/21 23:43:26;;;;;;;5.32;3.65;;;14.00;62.00;;;;;;10426988;28;20086;-63
2023/01/21 23:48:26;;;;;;;5.30;3.67;;;14.00;62.40;;;;;;10451320;28;20017;-61
2023/01/21 23:53:27;;;;;;;5.32;3.53;;;14.00;62.40;;;;;;10424621;28;20114;-63
2023/01/21 23:58:28;;;;;;;4.82;3.55;;;14.00;62.40;;;;;;10411417;28;20118;-62
